Time;durP1;ratioP1;P1;durP2;ratioP2;P2;SDS_P1;SDS_P2;PMS_P1;PMS_P2;Temp;Humidity;BMP_temperature;BMP_pressure;BME280_temperature;BME280_humidity;BME280_pressure;Samples;Min_cycle;Max_cycle;Signal;HPM_P1;HPM_P2
2023/04/18 00:00:00;;;;;;;8.35;6.95;;;;;;;10.88;52.35;100833.66;10415200;28;20053;-70
2023/04/18 00:05:04;;;;;;;7.63;6.65;;;;;;;10.82;52.77;100826.13;10416340;28;20465;-66
2023/04/18 00:10:06;;;;;;;10.60;7.20;;;;;;;10.67;52.47;100828.09;10414762;28;20068;-70
2023/04/18 00:15:08;;;;;;;9.20;6.95;;;;;;;10.64;52.67;100822.97;10414819;28;20265;-68
2023/04/18 00:20:11;;;;;;;7.45;6.65;;;;;;;10.60;52.48;100823.22;10416086;28;20754;-68
2023/04/18 00:25:13;;;;;;;8.48;7.50;;;;;;;10.50;52.93;100813.34;10415266;28;20123;-68
2023/04/18 00:30:15;;;;;;;7.53;6.78;;;;;;;10.46;52.87;100812.69;10417682;28;20041;-71
2023/04/18 00:35:18;;;;;;;7.93;7.13;;;;;;;10.46;52.74;100820.66;10417359;28;20139;-66
2023/04/18 00:40:19;;;;;;;8.88;7.22;;;;;;;10.45;52.61;100829.63;10416734;28;20060;-67
2023/04/18 00:45:21;;;;;;;8.82;7.80;;;;;;;10.38;53.45;100821.22;10414352;28;20057;-67
2023/04/18 00:50:23;;;;;;;9.35;7.35;;;;;;;10.42;54.00;100821.88;10407743;23;20515;-53
2023/04/18 00:55:24;;;;;;;7.82;7.03;;;;;;;10.45;53.97;100818.97;10379443;28;20123;-53
2023/04/18 01:00:26;;;;;;;8.45;6.93;;;;;;;10.35;54.59;100817.94;10378139;28;20049;-53
2023/04/18 01:05:27;;;;;;;8.52;7.30;;;;;;;10.31;54.78;100821.72;10386300;28;20212;-53
2023/04/18 01:10:30;;;;;;;9.68;7.72;;;;;;;10.29;54.91;100823.66;10368446;28;20497;-53
2023/04/18 01:15:31;;;;;;;9.02;8.07;;;;;;;10.22;55.27;100818.75;10379407;28;20124;-53
2023/04/18 01:20:34;;;;;;;12.15;8.30;;;;;;;10.14;55.57;100814.94;10382487;28;20936;-55
2023/04/18 01:25:37;;;;;;;11.10;7.88;;;;;;;10.08;56.28;100805.56;10385382;28;20056;-53
2023/04/18 01:30:39;;;;;;;9.50;8.35;;;;;;;10.06;56.86;100807.50;10373640;28;20243;-54
2023/04/18 01:35:40;;;;;;;9.05;8.07;;;;;;;10.04;56.53;100804.06;10366974;28;20041;-53
2023/04/18 01:40:42;;;;;;;9.68;8.55;;;;;;;10.00;56.70;100803.44;10362121;28;20072;-53
2023/04/18 01:45:44;;;;;;;12.00;8.38;;;;;;;9.98;56.78;100799.19;10370442;28;23048;-54
2023/04/18 01:50:46;;;;;;;9.75;8.75;;;;;;;9.91;57.34;100796.94;10375123;28;20049;-54
2023/04/18 01:55:49;;;;;;;11.20;8.98;;;;;;;9.84;57.44;100798.31;10376863;28;20079;-54
2023/04/18 02:00:51;;;;;;;9.48;8.57;;;;;;;9.82;58.02;100794.94;10379800;28;20049;-52
2023/04/18 02:05:54;;;;;;;10.13;9.20;;;;;;;9.78;58.30;100788.09;10377085;28;20426;-54
2023/04/18 02:10:56;;;;;;;9.80;8.80;;;;;;;9.66;58.45;100776.50;10373209;28;20126;-54
2023/04/18 02:15:57;;;;;;;10.30;9.18;;;;;;;9.67;58.84;100790.66;10373581;28;20052;-53
2023/04/18 02:20:59;;;;;;;10.75;9.65;;;;;;;9.59;59.43;100787.66;10381104;28;20045;-53
2023/04/18 02:26:01;;;;;;;10.98;9.23;;;;;;;9.49;59.62;100777.66;10368305;28;20059;-53
2023/04/18 02:31:02;;;;;;;10.88;9.77;;;;;;;9.58;59.95;100791.25;10354159;28;20056;-53
2023/04/18 02:36:04;;;;;;;10.43;9.07;;;;;;;9.52;60.24;100787.25;10377600;28;20090;-53
2023/04/18 02:41:06;;;;;;;14.50;11.02;;;;;;;9.49;60.11;100790.94;10360554;28;20056;-53
2023/04/18 02:46:08;;;;;;;11.45;10.13;;;;;;;9.45;60.86;100786.78;10379962;28;20119;-53
2023/04/18 02:51:09;;;;;;;12.27;9.70;;;;;;;9.41;61.16;100789.75;10369578;28;20209;-53
2023/04/18 02:56:15;;;;;;;14.73;11.45;;;;;;;9.36;61.04;100782.94;10374019;28;20053;-53
2023/04/18 03:01:17;;;;;;;11.93;10.73;;;;;;;9.24;61.90;100782.91;10373054;28;20501;-53
2023/04/18 03:06:18;;;;;;;12.05;10.88;;;;;;;9.33;61.60;100792.94;10372369;28;20053;-59
2023/04/18 03:11:21;;;;;;;11.73;9.52;;;;;;;9.17;62.59;100791.31;10374434;28;20855;-54
2023/04/18 03:16:22;;;;;;;12.73;11.43;;;;;;;9.19;62.45;100791.19;10371138;28;20059;-53
2023/04/18 03:21:24;;;;;;;12.23;10.65;;;;;;;9.15;62.53;100793.19;10362376;28;20064;-53
2023/04/18 03:26:27;;;;;;;14.10;10.95;;;;;;;9.15;63.21;100798.50;10373334;28;20056;-53
2023/04/18 03:31:28;;;;;;;12.75;11.45;;;;;;;9.09;63.44;100787.44;10361105;28;20130;-53
2023/04/18 03:36:30;;;;;;;13.35;12.10;;;;;;;9.20;63.24;100793.75;10380511;28;20694;-52
2023/04/18 03:41:31;;;;;;;14.65;12.35;;;;;;;9.19;63.56;100802.66;10385621;28;20117;-52
2023/04/18 03:46:34;;;;;;;13.18;11.77;;;;;;;9.20;63.42;100799.06;10370387;28;20091;-52
2023/04/18 03:51:43;;;;;;;11.90;10.63;;;;;;;9.14;63.58;100802.13;10379592;28;20073;-53
2023/04/18 03:56:44;;;;;;;12.73;11.45;;;;;;;9.11;63.65;100805.00;10387764;28;20529;-53
2023/04/18 04:01:46;;;;;;;13.45;12.07;;;;;;;8.95;63.89;100798.97;10384912;28;20148;-53
2023/04/18 04:06:47;;;;;;;15.02;12.13;;;;;;;8.95;64.67;100810.44;10387112;28;20717;-53
2023/04/18 04:11:49;;;;;;;13.40;11.70;;;;;;;8.93;64.92;100803.50;10387831;28;20069;-52
2023/04/18 04:16:51;;;;;;;13.93;12.52;;;;;;;8.90;65.18;100809.03;10386550;28;20136;-52
2023/04/18 04:21:53;;;;;;;12.88;11.52;;;;;;;8.84;65.43;100813.78;10392693;28;20060;-53
2023/04/18 04:27:02;;;;;;;13.25;11.90;;;;;;;8.82;64.99;100814.84;10395179;28;20052;-53
2023/04/18 04:32:05;;;;;;;12.52;11.23;;;;;;;8.85;65.03;100820.78;10390054;28;20049;-52
2023/04/18 04:37:07;;;;;;;15.48;12.05;;;;;;;8.80;65.16;100817.59;10395474;28;20055;-52
2023/04/18 04:42:08;;;;;;;12.50;11.30;;;;;;;8.76;64.80;100824.03;10394339;28;20038;-53
2023/04/18 04:47:09;;;;;;;12.23;10.65;;;;;;;8.72;65.34;100825.19;10388142;28;20116;-53
2023/04/18 04:52:11;;;;;;;11.48;10.38;;;;;;;8.72;64.95;100809.28;10380273;28;20065;-54
2023/04/18 04:57:12;;;;;;;11.68;10.50;;;;;;;8.84;64.72;100821.75;10382797;28;20145;-54
2023/04/18 05:02:14;;;;;;;12.25;11.05;;;;;;;8.76;64.60;100809.91;10377693;28;20107;-53
2023/04/18 05:07:15;;;;;;;12.18;10.88;;;;;;;8.84;64.70;100819.09;10387905;28;20060;-53
2023/04/18 05:12:17;;;;;;;13.70;11.35;;;;;;;8.85;64.71;100841.19;10359262;28;20064;-54
2023/04/18 05:17:18;;;;;;;11.82;10.63;;;;;;;8.88;64.90;100834.84;10353901;28;20140;-53
2023/04/18 05:22:20;;;;;;;12.88;11.45;;;;;;;8.84;64.80;100840.34;10366563;28;20054;-53
2023/04/18 05:27:22;;;;;;;12.35;11.07;;;;;;;8.91;64.69;100837.28;10376158;28;20110;-53
2023/04/18 05:32:24;;;;;;;13.55;10.60;;;;;;;8.94;64.42;100845.91;10362804;28;20053;-53
2023/04/18 05:37:26;;;;;;;11.10;10.00;;;;;;;9.00;64.41;100848.16;10352327;28;20709;-51
2023/04/18 05:42:27;;;;;;;10.93;9.75;;;;;;;9.15;64.03;100854.28;10368608;28;20190;-54
2023/04/18 05:47:29;;;;;;;12.75;10.60;;;;;;;9.15;63.96;100854.28;10372881;28;20061;-54
2023/04/18 05:52:31;;;;;;;11.23;10.02;;;;;;;9.25;63.32;100848.34;10370916;28;20796;-54
2023/04/18 05:57:32;;;;;;;12.45;10.65;;;;;;;9.28;63.68;100851.69;10368032;28;20587;-54
2023/04/18 06:02:34;;;;;;;12.15;10.55;;;;;;;9.40;63.61;100851.81;10370653;28;20910;-53
2023/04/18 06:07:36;;;;;;;10.38;9.38;;;;;;;9.41;63.78;100858.84;10362153;28;20057;-53
2023/04/18 06:12:38;;;;;;;10.63;9.55;;;;;;;9.36;63.54;100851.19;10361216;28;20871;-53
2023/04/18 06:17:40;;;;;;;10.52;9.25;;;;;;;9.54;63.32;100876.53;10351321;28;20057;-53
2023/04/18 06:22:42;;;;;;;12.13;9.50;;;;;;;9.57;63.47;100880.78;10340113;28;21065;-54
2023/04/18 06:27:43;;;;;;;9.63;8.73;;;;;;;9.58;63.45;100887.81;10362354;28;20053;-54
2023/04/18 06:32:45;;;;;;;10.73;9.63;;;;;;;9.59;63.52;100896.63;10345665;28;20040;-53
2023/04/18 06:37:47;;;;;;;10.82;9.18;;;;;;;9.62;63.85;100907.06;10355062;28;20055;-53
2023/04/18 06:42:50;;;;;;;10.35;9.32;;;;;;;9.69;63.99;100897.75;10346720;28;20102;-56
2023/04/18 06:47:52;;;;;;;10.85;9.75;;;;;;;9.74;63.71;100906.25;10351321;28;20053;-55
2023/04/18 06:52:54;;;;;;;10.13;8.90;;;;;;;9.80;63.83;100908.50;10366309;28;20787;-54
2023/04/18 06:57:55;;;;;;;9.23;8.32;;;;;;;9.91;63.48;100908.63;10361652;28;20053;-53
2023/04/18 07:02:57;;;;;;;9.38;8.38;;;;;;;9.67;63.54;100870.41;10359949;28;20052;-55
2023/04/18 07:07:58;;;;;;;8.75;7.95;;;;;;;10.02;63.27;100912.38;10353602;28;20044;-53
2023/04/18 07:13:00;;;;;;;8.60;7.82;;;;;;;10.05;63.06;100906.84;10364764;28;20064;-53
2023/04/18 07:18:02;;;;;;;8.90;8.00;;;;;;;10.18;62.86;100906.88;10365557;28;20638;-54
2023/04/18 07:23:05;;;;;;;10.45;8.20;;;;;;;10.29;62.47;100898.16;10365794;28;20053;-54
2023/04/18 07:28:06;;;;;;;9.23;8.07;;;;;;;10.34;62.22;100904.88;10359065;28;20072;-54
2023/04/18 07:33:07;;;;;;;8.82;7.95;;;;;;;10.41;62.24;100903.50;10347421;28;20057;-53
2023/04/18 07:38:10;;;;;;;7.80;7.00;;;;;;;10.41;62.17;100905.31;10362444;28;20057;-54
2023/04/18 07:43:12;;;;;;;8.18;7.30;;;;;;;10.52;62.38;100921.38;10358341;28;20061;-53
2023/04/18 07:48:13;;;;;;;7.85;7.05;;;;;;;10.71;70.85;100904.13;10362809;28;20064;-47
2023/04/18 07:53:15;;;;;;;8.95;8.05;;;;;;;10.94;62.20;100922.00;10358214;28;20057;-56
2023/04/18 07:58:17;;;;;;;7.15;6.45;;;;;;;11.14;61.24;100912.56;10346140;28;20061;-53
2023/04/18 08:03:18;;;;;;;8.65;6.65;;;;;;;11.30;60.66;100906.09;10367875;28;20066;-52
2023/04/18 08:08:20;;;;;;;7.43;6.63;;;;;;;11.46;60.18;100911.16;10346896;28;20093;-54
2023/04/18 08:13:22;;;;;;;6.82;6.13;;;;;;;11.76;60.04;100924.03;10359093;28;20045;-54
2023/04/18 08:18:24;;;;;;;7.07;6.43;;;;;;;11.96;59.56;100932.38;10362710;28;21354;-55
2023/04/18 08:23:26;;;;;;;7.78;6.60;;;;;;;12.00;59.12;100932.03;10374113;28;20134;-53
2023/04/18 08:28:27;;;;;;;7.53;6.80;;;;;;;11.98;58.96;100925.97;10368671;28;20049;-54
2023/04/18 08:33:29;;;;;;;7.25;6.55;;;;;;;12.09;58.95;100918.97;10371294;28;20196;-54
2023/04/18 08:38:30;;;;;;;7.85;7.05;;;;;;;12.51;58.48;100924.63;10352588;28;20054;-54
2023/04/18 08:43:32;;;;;;;8.52;7.03;;;;;;;12.73;57.27;100930.00;10343302;28;20801;-54
2023/04/18 08:48:33;;;;;;;7.53;6.75;;;;;;;13.01;56.80;100925.09;10360609;28;20056;-54
2023/04/18 08:53:35;;;;;;;7.75;7.05;;;;;;;13.18;55.92;100906.88;10377473;28;20235;-53
2023/04/18 08:58:37;;;;;;;7.72;6.93;;;;;;;13.43;55.77;100936.00;10367399;28;20049;-53
2023/04/18 09:03:41;;;;;;;8.00;7.18;;;;;;;13.56;55.00;100921.66;10339282;28;20230;-55
2023/04/18 09:08:56;;;;;;;6.93;6.22;;;;;;;13.69;55.09;100922.34;10357446;28;20099;-53
2023/04/18 09:13:58;;;;;;;6.05;5.30;;;;;;;13.66;54.52;100911.88;10353263;28;20049;-54
2023/04/18 09:19:16;;;;;;;6.35;5.82;;;;;;;13.79;53.60;100920.56;10363438;28;20045;-54
2023/04/18 09:24:25;;;;;;;6.60;6.00;;;;;;;13.82;53.27;100919.47;10353133;28;20060;-54
2023/04/18 09:29:48;;;;;;;6.35;5.78;;;;;;;13.73;53.79;100913.06;10358983;28;20114;-55
2023/04/18 09:34:56;;;;;;;5.57;5.07;;;;;;;13.56;53.90;100905.59;10353550;28;20081;-54
2023/04/18 09:40:16;;;;;;;7.33;6.10;;;;;;;13.55;54.70;100914.59;10368200;28;20878;-54
2023/04/18 09:45:19;;;;;;;6.10;5.50;;;;;;;13.64;55.19;100905.78;10362407;28;20306;-54
2023/04/18 09:50:21;;;;;;;6.85;5.50;;;;;;;13.87;54.66;100895.00;10359243;28;22051;-54
2023/04/18 09:55:22;;;;;;;7.55;5.78;;;;;;;14.21;53.45;100884.94;10360228;28;20186;-54
2023/04/18 10:00:28;;;;;;;5.47;4.97;;;;;;;14.59;52.20;100887.94;10363631;28;20049;-54
2023/04/18 10:05:39;;;;;;;7.35;5.43;;;;;;;14.98;51.37;100882.75;10321216;28;20118;-56
2023/04/18 10:10:42;;;;;;;8.32;6.18;;;;;;;15.31;50.49;100878.03;10353524;28;20053;-54
2023/04/18 10:15:44;;;;;;;5.78;5.18;;;;;;;16.03;48.63;100892.91;10341907;28;20049;-55
2023/04/18 10:20:46;;;;;;;5.20;4.70;;;;;;;16.20;48.42;100891.31;10362735;28;20053;-54
2023/04/18 10:25:49;;;;;;;5.30;4.80;;;;;;;15.70;48.79;100884.28;10392562;23;20084;-68
2023/04/18 10:30:52;;;;;;;5.28;4.78;;;;;;;15.38;49.21;100857.72;10358267;28;20052;-69
2023/04/18 10:36:07;;;;;;;5.72;5.22;;;;;;;15.26;49.46;100872.25;10347145;28;20073;-67
2023/04/18 10:41:31;;;;;;;4.93;4.45;;;;;;;16.03;48.96;100866.06;10347212;28;20091;-67
2023/04/18 10:46:36;;;;;;;7.28;4.78;;;;;;;17.98;45.11;100850.63;10346575;28;20076;-67
2023/04/18 10:51:38;;;;;;;4.68;4.28;;;;;;;22.32;37.32;100859.31;10342415;28;20050;-68
2023/04/18 10:56:50;;;;;;;4.60;4.20;;;;;;;22.62;36.07;100847.63;10346237;28;20068;-69
2023/04/18 11:02:09;;;;;;;4.93;4.53;;;;;;;21.27;37.79;100847.31;10348204;28;20049;-69
2023/04/18 11:07:11;;;;;;;4.90;4.43;;;;;;;20.71;38.85;100839.31;10349426;28;20156;-67
2023/04/18 11:12:12;;;;;;;5.53;5.00;;;;;;;21.46;38.82;100835.13;10349230;28;20324;-68
2023/04/18 11:17:22;;;;;;;4.72;4.10;;;;;;;19.48;40.80;100828.69;10348480;28;20126;-67
2023/04/18 11:22:24;;;;;;;4.40;4.00;;;;;;;18.09;44.13;100809.16;10349908;28;20145;-69
2023/04/18 11:27:28;;;;;;;4.75;4.35;;;;;;;17.38;45.77;100816.31;10351113;28;20059;-69
2023/04/18 11:32:29;;;;;;;;;;;;;;;17.02;46.20;100805.53;10343308;28;20054;-69
2023/04/18 11:37:31;;;;;;;4.93;4.30;;;;;;;17.11;46.83;100806.47;10347037;28;20072;-69
2023/04/18 11:42:33;;;;;;;4.15;3.70;;;;;;;16.64;48.28;100793.16;10345711;28;20092;-71
2023/04/18 11:47:36;;;;;;;4.22;3.72;;;;;;;16.47;48.69;100810.91;10339348;28;20145;-69
2023/04/18 11:52:41;;;;;;;3.63;3.33;;;;;;;16.24;48.97;100822.03;10329924;28;20057;-70
2023/04/18 11:57:57;;;;;;;3.72;3.42;;;;;;;16.18;49.62;100818.13;10368193;28;20784;-68
2023/04/18 12:03:00;;;;;;;3.90;3.60;;;;;;;16.23;49.69;100826.56;10355863;28;20200;-68
2023/04/18 12:08:05;;;;;;;5.63;3.78;;;;;;;16.02;49.94;100817.88;10362276;28;20093;-68
2023/04/18 12:13:07;;;;;;;3.95;3.60;;;;;;;16.13;49.42;100825.75;10357375;28;20057;-66
2023/04/18 12:18:12;;;;;;;3.97;3.58;;;;;;;16.25;49.33;100829.09;10358826;28;20054;-69
2023/04/18 12:23:34;;;;;;;3.95;3.55;;;;;;;16.28;49.14;100811.88;10358887;28;20504;-69
2023/04/18 12:28:36;;;;;;;3.47;3.20;;;;;;;16.30;49.07;100804.50;10360252;28;20123;-68
2023/04/18 12:33:37;;;;;;;3.53;3.22;;;;;;;16.21;49.13;100812.44;10356898;28;20049;-66
2023/04/18 12:38:39;;;;;;;3.10;2.90;;;;;;;15.98;48.32;100811.09;10357711;28;20049;-67
2023/04/18 12:43:40;;;;;;;2.75;2.55;;;;;;;15.84;48.67;100799.81;10364703;28;20063;-65
2023/04/18 12:48:42;;;;;;;3.15;2.85;;;;;;;15.96;49.12;100811.25;10384829;28;20117;-68
2023/04/18 12:53:43;;;;;;;2.97;2.78;;;;;;;15.88;48.14;100814.66;10393880;28;20053;-66
2023/04/18 12:58:45;;;;;;;3.20;2.90;;;;;;;15.96;47.37;100823.81;10363538;28;20060;-66
2023/04/18 13:03:46;;;;;;;3.50;3.20;;;;;;;15.99;47.92;100820.81;10354545;28;20045;-65
2023/04/18 13:09:00;;;;;;;4.13;3.05;;;;;;;15.89;47.92;100823.56;10349172;28;20049;-66
2023/04/18 13:14:01;;;;;;;3.65;3.35;;;;;;;15.72;48.95;100814.38;10351848;28;20057;-67
2023/04/18 13:19:03;;;;;;;4.25;3.85;;;;;;;15.73;48.85;100824.09;10355457;28;20127;-67
2023/04/18 13:24:04;;;;;;;3.88;3.50;;;;;;;15.65;49.29;100810.56;10354170;28;20147;-68
2023/04/18 13:29:06;;;;;;;4.30;3.90;;;;;;;15.62;49.56;100813.53;10361344;28;20054;-69
2023/04/18 13:34:07;;;;;;;3.92;3.63;;;;;;;15.74;49.36;100825.81;10359408;28;20191;-67
2023/04/18 13:39:09;;;;;;;4.95;3.50;;;;;;;15.85;49.02;100827.50;10353762;28;20475;-66
2023/04/18 13:44:10;;;;;;;4.80;3.22;;;;;;;15.98;48.69;100816.47;10356872;28;20053;-68
2023/04/18 13:49:12;;;;;;;3.60;3.30;;;;;;;16.06;48.24;100827.31;10355495;28;20051;-68
2023/04/18 13:54:15;;;;;;;4.80;4.40;;;;;;;16.18;47.95;100817.25;10350959;28;20054;-69
2023/04/18 13:59:19;;;;;;;4.30;3.90;;;;;;;16.71;47.30;100818.44;10352033;28;20059;-68
2023/04/18 14:04:21;;;;;;;4.35;4.05;;;;;;;17.00;47.26;100812.91;10336951;28;20172;-67
2023/04/18 14:09:23;;;;;;;4.72;4.32;;;;;;;17.11;47.17;100803.78;10340113;28;20061;-66
2023/04/18 14:14:24;;;;;;;5.57;4.95;;;;;;;16.86;46.92;100806.19;10346385;28;20056;-68
2023/04/18 14:19:26;;;;;;;6.47;5.82;;;;;;;16.57;48.08;100801.84;10351781;28;20087;-67
2023/04/18 14:24:27;;;;;;;13.88;7.45;;;;;;;16.74;48.12;100816.31;10356928;28;20056;-68
2023/04/18 14:29:29;;;;;;;7.10;6.35;;;;;;;16.64;48.52;100801.22;10349705;28;20363;-66
2023/04/18 14:34:31;;;;;;;8.05;7.35;;;;;;;16.34;49.12;100806.72;10351105;28;20706;-66
2023/04/18 14:39:36;;;;;;;9.05;8.20;;;;;;;16.18;49.29;100809.19;10349949;28;20147;-68
2023/04/18 14:44:38;;;;;;;8.70;7.90;;;;;;;16.09;49.58;100797.50;10353046;28;20510;-68
2023/04/18 14:49:40;;;;;;;7.15;6.43;;;;;;;16.25;48.79;100808.47;10353946;28;20580;-66
2023/04/18 14:54:42;;;;;;;7.03;6.28;;;;;;;16.30;48.72;100799.94;10348665;28;20468;-67
2023/04/18 14:59:44;;;;;;;7.15;6.55;;;;;;;16.44;48.47;100806.72;10350071;28;20527;-69
2023/04/18 15:04:46;;;;;;;5.82;5.32;;;;;;;16.56;48.12;100810.88;10359248;28;20079;-65
2023/04/18 15:09:49;;;;;;;6.88;6.28;;;;;;;16.47;48.12;100790.28;10358275;28;20487;-68
2023/04/18 15:14:50;;;;;;;7.03;6.43;;;;;;;16.59;48.74;100805.22;10348206;28;20056;-68
2023/04/18 15:19:52;;;;;;;8.45;7.72;;;;;;;16.39;49.33;100808.97;10355520;28;20140;-65
2023/04/18 15:24:53;;;;;;;9.52;8.70;;;;;;;16.10;50.08;100788.44;10353234;28;20214;-69
2023/04/18 15:29:55;;;;;;;8.60;7.68;;;;;;;15.99;50.45;100791.28;10353200;28;20059;-68
2023/04/18 15:34:56;;;;;;;8.55;7.85;;;;;;;15.93;50.93;100791.88;10349975;28;20178;-69
2023/04/18 15:39:59;;;;;;;8.68;7.97;;;;;;;16.09;50.35;100797.50;10353932;28;20163;-68
2023/04/18 15:45:00;;;;;;;9.05;7.93;;;;;;;16.22;50.08;100810.59;10343674;28;20453;-71
2023/04/18 15:50:02;;;;;;;8.85;7.95;;;;;;;15.88;49.92;100803.91;10343039;28;20579;-69
2023/04/18 15:55:04;;;;;;;9.02;8.18;;;;;;;15.96;50.65;100805.00;10345321;28;20488;-69
2023/04/18 16:00:18;;;;;;;8.32;7.53;;;;;;;15.77;50.65;100809.41;10341892;28;20061;-71
2023/04/18 16:05:20;;;;;;;8.75;8.05;;;;;;;15.55;50.90;100799.81;10353738;28;20059;-64
2023/04/18 16:10:21;;;;;;;7.80;7.10;;;;;;;15.55;51.08;100805.19;10350850;28;20061;-69
2023/04/18 16:15:22;;;;;;;7.40;6.75;;;;;;;15.67;50.86;100828.22;10353713;28;20054;-69
2023/04/18 16:20:25;;;;;;;7.90;7.05;;;;;;;15.45;51.21;100813.25;10350489;28;20131;-68
2023/04/18 16:25:27;;;;;;;7.50;6.78;;;;;;;15.41;51.47;100844.03;10350387;28;20141;-68
2023/04/18 16:30:29;;;;;;;7.05;6.35;;;;;;;15.20;51.87;100842.31;10335668;28;20503;-68
2023/04/18 16:35:30;;;;;;;7.18;6.57;;;;;;;15.11;52.09;100829.75;10341377;28;20054;-68
2023/04/18 16:40:33;;;;;;;6.35;5.75;;;;;;;15.00;52.40;100844.13;10348549;28;20311;-67
2023/04/18 16:45:35;;;;;;;6.25;5.68;;;;;;;14.99;52.52;100844.25;10356854;28;20390;-68
2023/04/18 16:50:36;;;;;;;6.28;5.72;;;;;;;14.95;52.70;100845.50;10363468;28;20045;-67
2023/04/18 16:55:38;;;;;;;8.07;7.30;;;;;;;14.74;53.10;100827.72;10354143;28;20737;-69
2023/04/18 17:00:39;;;;;;;6.82;6.13;;;;;;;14.69;52.89;100840.66;10355895;28;21216;-68
2023/04/18 17:05:41;;;;;;;6.30;5.70;;;;;;;14.56;52.75;100840.88;10353897;28;20059;-68
2023/04/18 17:10:42;;;;;;;6.30;4.95;;;;;;;14.70;52.90;100862.91;10354676;28;20525;-66
2023/04/18 17:15:43;;;;;;;5.90;5.40;;;;;;;14.59;52.79;100882.59;10348735;28;20072;-67
2023/04/18 17:20:45;;;;;;;5.25;4.75;;;;;;;14.45;52.48;100871.25;10346461;28;20440;-67
2023/04/18 17:25:46;;;;;;;6.00;4.95;;;;;;;14.45;52.96;100875.78;10349177;28;20200;-65
2023/04/18 17:30:49;;;;;;;6.68;5.55;;;;;;;14.42;53.14;100890.28;10348574;28;20130;-69
2023/04/18 17:35:50;;;;;;;6.53;5.93;;;;;;;14.21;53.43;100886.78;10359350;28;20144;-67
2023/04/18 17:40:59;;;;;;;6.47;5.85;;;;;;;13.92;53.58;100861.53;10355835;28;20785;-68
2023/04/18 17:46:02;;;;;;;6.50;5.72;;;;;;;14.07;54.04;100887.97;10350628;28;20049;-69
2023/04/18 17:51:04;;;;;;;6.93;5.85;;;;;;;14.01;54.27;100905.41;10343498;28;20093;-68
2023/04/18 17:56:05;;;;;;;6.88;6.18;;;;;;;13.82;54.69;100905.25;10350995;28;20123;-67
2023/04/18 18:01:14;;;;;;;6.07;5.50;;;;;;;13.79;55.07;100901.84;10347521;28;20870;-66
2023/04/18 18:06:16;;;;;;;8.63;5.85;;;;;;;13.81;55.30;100906.22;10344077;28;20041;-66
2023/04/18 18:11:17;;;;;;;6.47;5.82;;;;;;;13.78;55.64;100926.91;10344683;28;20436;-67
2023/04/18 18:16:19;;;;;;;5.65;5.15;;;;;;;13.75;55.95;100923.63;10345357;28;20055;-67
2023/04/18 18:21:20;;;;;;;11.10;7.28;;;;;;;13.65;57.77;100910.19;10346951;28;20064;-68
2023/04/18 18:26:22;;;;;;;7.35;6.32;;;;;;;13.73;56.73;100918.41;10335477;28;20630;-67
2023/04/18 18:31:23;;;;;;;6.90;6.25;;;;;;;13.78;56.71;100931.41;10344215;28;20091;-67
2023/04/18 18:36:26;;;;;;;7.45;6.72;;;;;;;13.67;56.83;100923.44;10345060;28;20104;-65
2023/04/18 18:41:27;;;;;;;7.18;6.47;;;;;;;13.53;57.29;100922.75;10354532;28;20189;-66
2023/04/18 18:46:29;;;;;;;7.57;6.70;;;;;;;13.53;57.65;100944.13;10344362;28;20600;-66
2023/04/18 18:51:31;;;;;;;7.95;6.32;;;;;;;13.47;57.86;100949.16;10349419;28;20046;-67
2023/04/18 18:56:33;;;;;;;7.35;6.65;;;;;;;13.55;57.93;100960.06;10353022;28;20391;-65
2023/04/18 19:01:34;;;;;;;7.80;7.00;;;;;;;13.55;58.10;100958.22;10378885;28;20096;-66
2023/04/18 19:06:35;;;;;;;7.65;6.95;;;;;;;13.44;58.02;100953.75;10371122;28;20120;-70
2023/04/18 19:11:37;;;;;;;9.50;8.32;;;;;;;13.54;58.28;100967.25;10351487;28;20136;-68
2023/04/18 19:16:38;;;;;;;7.95;7.15;;;;;;;13.51;58.42;100970.16;10351182;28;20044;-68
2023/04/18 19:21:44;;;;;;;8.25;7.45;;;;;;;13.52;58.65;100973.69;10352669;28;20105;-67
2023/04/18 19:26:45;;;;;;;7.78;7.07;;;;;;;13.41;58.54;100972.72;10345749;28;20050;-66
2023/04/18 19:31:47;;;;;;;7.45;6.75;;;;;;;13.46;58.77;100984.88;10348206;28;20057;-68
2023/04/18 19:36:48;;;;;;;8.57;6.85;;;;;;;13.23;58.85;100964.34;10347472;28;20514;-68
2023/04/18 19:41:50;;;;;;;8.18;7.38;;;;;;;13.21;59.07;100970.78;10345878;28;20057;-68
2023/04/18 19:46:51;;;;;;;7.85;7.05;;;;;;;13.23;59.49;100979.53;10349704;28;20061;-67
2023/04/18 19:51:52;;;;;;;7.00;6.40;;;;;;;13.22;59.96;100983.19;10351144;28;20045;-67
2023/04/18 19:56:54;;;;;;;8.48;7.68;;;;;;;13.26;59.50;100987.31;10368541;28;20053;-69
2023/04/18 20:01:55;;;;;;;7.82;7.05;;;;;;;13.15;59.67;100971.25;10352703;28;20045;-68
2023/04/18 20:07:01;;;;;;;8.43;7.53;;;;;;;13.14;60.02;100983.78;10350724;28;20053;-68
2023/04/18 20:12:02;;;;;;;8.18;7.38;;;;;;;13.00;60.45;100974.22;10346046;28;20053;-67
2023/04/18 20:17:04;;;;;;;7.05;6.45;;;;;;;13.05;60.54;100980.03;10352382;28;20140;-66
2023/04/18 20:22:06;;;;;;;7.80;6.88;;;;;;;12.98;60.47;100970.78;10353921;28;20485;-67
2023/04/18 20:27:08;;;;;;;7.50;6.75;;;;;;;12.97;60.23;100965.56;10359464;28;20056;-66
2023/04/18 20:32:10;;;;;;;7.28;6.57;;;;;;;12.95;60.78;100964.84;10356173;28;20049;-70
2023/04/18 20:37:14;;;;;;;7.88;6.80;;;;;;;12.91;61.07;100962.41;10353331;28;20144;-66
2023/04/18 20:42:16;;;;;;;6.75;6.07;;;;;;;12.96;61.05;100967.41;10358228;28;20361;-67
2023/04/18 20:47:17;;;;;;;7.10;6.22;;;;;;;12.85;61.08;100956.69;10356777;28;20150;-68
2023/04/18 20:52:19;;;;;;;7.10;6.28;;;;;;;12.95;61.53;100991.56;10355969;28;20199;-68
2023/04/18 20:57:20;;;;;;;6.15;4.95;;;;;;;12.99;61.49;100993.88;10360473;28;20425;-67
2023/04/18 21:02:22;;;;;;;7.00;6.30;;;;;;;12.95;61.59;100986.22;10359262;28;20057;-66
2023/04/18 21:07:23;;;;;;;7.28;5.75;;;;;;;13.00;61.47;100979.56;10357997;28;20060;-67
2023/04/18 21:12:26;;;;;;;7.60;5.47;;;;;;;12.92;61.54;100965.94;10357203;28;20352;-67
2023/04/18 21:17:27;;;;;;;6.38;5.78;;;;;;;13.01;61.83;100978.56;10353267;28;20092;-66
2023/04/18 21:22:29;;;;;;;6.68;6.07;;;;;;;12.98;61.94;100984.16;10356189;28;20152;-69
2023/04/18 21:27:30;;;;;;;6.38;4.90;;;;;;;12.87;62.42;100968.13;10343801;28;20060;-64
2023/04/18 21:32:32;;;;;;;5.90;5.40;;;;;;;12.81;62.72;100963.28;10352654;28;20461;-67
2023/04/18 21:37:33;;;;;;;5.50;4.97;;;;;;;12.87;62.82;100989.50;10345451;28;20063;-65
2023/04/18 21:42:35;;;;;;;6.07;5.47;;;;;;;12.77;63.45;100993.88;10353170;28;20053;-63
2023/04/18 21:47:37;;;;;;;6.15;5.55;;;;;;;12.59;63.69;100970.28;10354450;28;20057;-64
2023/04/18 21:52:38;;;;;;;5.80;4.97;;;;;;;12.70;63.95;100999.69;10334786;28;20084;-64
2023/04/18 21:57:40;;;;;;;5.88;5.28;;;;;;;12.71;64.17;100996.03;10335187;28;20053;-64
2023/04/18 22:02:41;;;;;;;5.35;4.78;;;;;;;12.65;63.88;100982.31;10364491;28;20045;-65
2023/04/18 22:07:43;;;;;;;4.50;4.07;;;;;;;12.76;64.01;100998.38;10342573;28;20045;-65
2023/04/18 22:12:59;;;;;;;6.03;4.95;;;;;;;12.79;63.60;100991.91;10362214;28;20068;-63
2023/04/18 22:18:00;;;;;;;5.25;4.75;;;;;;;12.77;63.91;101000.03;10372763;28;20132;-63
2023/04/18 22:23:03;;;;;;;4.85;4.43;;;;;;;12.75;63.84;100977.13;10361777;28;20049;-64
2023/04/18 22:28:04;;;;;;;5.13;4.63;;;;;;;12.83;63.66;100990.72;10365172;28;20068;-63
2023/04/18 22:33:05;;;;;;;5.10;4.53;;;;;;;12.72;64.06;100992.41;10361915;28;20228;-66
2023/04/18 22:38:07;;;;;;;4.72;4.32;;;;;;;12.75;63.64;100993.16;10364136;28;20931;-64
2023/04/18 22:43:08;;;;;;;4.22;3.83;;;;;;;12.69;64.30;100981.94;10363289;28;20056;-64
2023/04/18 22:48:12;;;;;;;4.32;3.92;;;;;;;12.75;63.93;100995.81;10360572;28;20561;-65
2023/04/18 22:53:13;;;;;;;4.40;4.00;;;;;;;12.70;64.14;100986.34;10361647;28;20294;-65
2023/04/18 22:58:15;;;;;;;4.55;3.83;;;;;;;12.71;64.00;100990.69;10360082;28;20053;-64
2023/04/18 23:03:17;;;;;;;3.88;3.47;;;;;;;12.69;63.54;100987.28;10363572;28;20108;-64
2023/04/18 23:08:21;;;;;;;4.50;3.95;;;;;;;12.76;63.32;100992.16;10364282;28;20103;-65